EKKV weather

Klaksvik Heliport
Klaksvik, Faroe Islands

Public forecast

Using degrees Celsius for public forecast. Weather courtesy of forecast.io.

METAR (pilot weather report)

Closest report is Vagar Airport, 21.7 nm (40.2 km) WSW. Retrieved 2019/09/23 19:20 UTC (2 minutes ago):

EKVG 231920Z AUTO 11018KT 0400 R12/1300N R30/0900N -RA FG OVC000/// 11/11 Q1003

TAF (pilot weather forecast)

Forecast is more than 12 hours old.

Closest forecast is Vagar Airport, 21.7 nm (40.2 km) WSW. Retrieved 2017/08/20 00:36 UTC (2 years ago):

TAF TAF EKVG 200034Z 2000/2012 33018KT 9000 FEW007 TEMPO 2003/2006 34025G35KT 4000 DZRA BKN006